createdAt,value
2018-01-27T00:00:55.143Z,0
2018-01-27T00:01:55.218Z,0
2018-01-27T00:02:55.098Z,0
2018-01-27T00:03:54.574Z,0
2018-01-27T00:04:55.037Z,0
2018-01-27T00:05:55.015Z,0
2018-01-27T00:06:54.733Z,0
2018-01-27T00:07:54.954Z,0
2018-01-27T00:08:54.685Z,0
2018-01-27T00:09:54.903Z,0
2018-01-27T00:10:54.885Z,0
2018-01-27T00:11:54.847Z,0
2018-01-27T00:12:54.328Z,0
2018-01-27T00:13:54.801Z,0
2018-01-27T00:14:54.768Z,0
2018-01-27T00:15:54.253Z,0
2018-01-27T00:16:54.467Z,0
2018-01-27T00:17:54.442Z,0
2018-01-27T00:18:54.695Z,0
2018-01-27T00:19:54.141Z,0
2018-01-27T00:20:54.367Z,0
2018-01-27T00:21:54.093Z,0
2018-01-27T00:22:54.303Z,0
2018-01-27T00:23:54.283Z,0
2018-01-27T00:24:54.497Z,0
2018-01-27T00:25:54.221Z,0
2018-01-27T00:26:54.445Z,0
2018-01-27T00:27:54.423Z,0
2018-01-27T00:28:54.392Z,0
2018-01-27T00:29:54.371Z,0
2018-01-27T00:30:54.091Z,0
2018-01-27T00:31:54.068Z,0
2018-01-27T00:32:54.037Z,0
2018-01-27T00:33:53.765Z,0
2018-01-27T00:34:53.981Z,0
2018-01-27T00:35:53.707Z,0
2018-01-27T00:36:54.179Z,0
2018-01-27T00:37:53.901Z,0
2018-01-27T00:38:53.876Z,0
2018-01-27T00:39:54.095Z,0
2018-01-27T00:40:54.070Z,0
2018-01-27T00:41:54.046Z,0
2018-01-27T00:42:54.021Z,0
2018-01-27T00:43:53.988Z,0
2018-01-27T00:44:53.715Z,0
2018-01-27T00:45:53.929Z,0
2018-01-27T00:46:53.916Z,0
2018-01-27T00:47:53.628Z,0
2018-01-27T00:48:53.607Z,0
2018-01-27T00:49:53.827Z,0
2018-01-27T00:50:53.063Z,0
2018-01-27T00:51:53.527Z,0
2018-01-27T00:52:53.749Z,0
2018-01-27T00:53:53.715Z,0
2018-01-27T00:54:53.687Z,0
2018-01-27T00:55:53.668Z,0
2018-01-27T00:56:53.658Z,0
2018-01-27T00:57:53.617Z,0
2018-01-27T00:58:53.343Z,0
2018-01-27T00:59:53.317Z,0
2018-01-27T01:00:53.281Z,0
2018-01-27T01:01:53.499Z,0
2018-01-27T01:02:53.475Z,0
2018-01-27T01:03:53.449Z,0
2018-01-27T01:04:53.427Z,0
2018-01-27T01:05:53.147Z,0
2018-01-27T01:06:53.366Z,0
2018-01-27T01:07:53.439Z,0
2018-01-27T01:08:53.328Z,0
2018-01-27T01:09:53.292Z,0
2018-01-27T01:10:53.309Z,0
2018-01-27T01:11:52.988Z,0
2018-01-27T01:12:52.714Z,0
2018-01-27T01:13:53.185Z,0
2018-01-27T01:14:52.659Z,0
2018-01-27T01:15:53.178Z,0
2018-01-27T01:16:53.259Z,0
2018-01-27T01:17:52.824Z,0
2018-01-27T01:18:53.044Z,0
2018-01-27T01:19:52.771Z,0
2018-01-27T01:20:53.000Z,0
2018-01-27T01:21:52.724Z,0
2018-01-27T01:22:52.445Z,0
2018-01-27T01:23:52.910Z,0
2018-01-27T01:24:52.879Z,0
2018-01-27T01:25:52.861Z,0
2018-01-27T01:26:52.826Z,0
2018-01-27T01:27:52.554Z,0
2018-01-27T01:28:52.530Z,0
2018-01-27T01:29:52.501Z,0
2018-01-27T01:30:52.486Z,0
2018-01-27T01:31:52.209Z,0
2018-01-27T01:32:52.677Z,0
2018-01-27T01:33:52.154Z,0
2018-01-27T01:34:52.370Z,0
2018-01-27T01:35:52.343Z,0
2018-01-27T01:36:52.563Z,0
2018-01-27T01:37:52.550Z,0
2018-01-27T01:38:52.514Z,0
2018-01-27T01:39:52.247Z,0
2018-01-27T01:40:52.220Z,0
2018-01-27T01:41:52.432Z,0
2018-01-27T01:42:52.399Z,0
2018-01-27T01:43:52.375Z,0
2018-01-27T01:44:52.341Z,0
2018-01-27T01:45:52.313Z,0
2018-01-27T01:46:52.047Z,0
2018-01-27T01:47:52.273Z,0
2018-01-27T01:48:51.988Z,0
2018-01-27T01:49:52.211Z,0
2018-01-27T01:50:51.932Z,0
2018-01-27T01:51:52.153Z,0
2018-01-27T01:52:52.131Z,0
2018-01-27T01:53:52.102Z,0
2018-01-27T01:54:51.580Z,0
2018-01-27T01:55:52.047Z,0
2018-01-27T01:56:52.027Z,0
2018-01-27T01:57:51.503Z,0
2018-01-27T01:58:51.972Z,0
2018-01-27T01:59:51.699Z,0
2018-01-27T02:00:51.918Z,0
2018-01-27T02:01:51.888Z,0
2018-01-27T02:02:51.859Z,0
2018-01-27T02:03:51.829Z,0
2018-01-27T02:04:51.809Z,0
2018-01-27T02:05:51.776Z,0
2018-01-27T02:06:51.511Z,0
2018-01-27T02:07:51.729Z,0
2018-01-27T02:08:51.698Z,0
2018-01-27T02:09:51.671Z,0
2018-01-27T02:10:51.643Z,0
2018-01-27T02:11:51.618Z,0
2018-01-27T02:12:51.584Z,0
2018-01-27T02:13:51.573Z,0
2018-01-27T02:14:51.295Z,0
2018-01-27T02:15:51.511Z,0
2018-01-27T02:16:51.485Z,0
2018-01-27T02:17:51.457Z,0
2018-01-27T02:18:51.426Z,0
2018-01-27T02:19:51.450Z,0
2018-01-27T02:20:51.370Z,0
2018-01-27T02:21:51.349Z,0
2018-01-27T02:22:51.315Z,0
2018-01-27T02:23:51.045Z,0
2018-01-27T02:24:51.262Z,0
2018-01-27T02:25:51.245Z,0
2018-01-27T02:26:51.221Z,0
2018-01-27T02:27:50.938Z,0
2018-01-27T02:28:50.916Z,0
2018-01-27T02:29:51.129Z,0
2018-01-27T02:30:50.859Z,0
2018-01-27T02:31:50.835Z,0
2018-01-27T02:32:50.809Z,0
2018-01-27T02:33:51.023Z,0
2018-01-27T02:34:50.995Z,0
2018-01-27T02:35:50.969Z,0
2018-01-27T02:36:50.949Z,0
2018-01-27T02:37:50.918Z,0
2018-01-27T02:38:50.392Z,0
2018-01-27T02:39:50.863Z,0
2018-01-27T02:40:50.844Z,0
2018-01-27T02:41:50.805Z,0
2018-01-27T02:42:50.786Z,0
2018-01-27T02:43:50.753Z,0
2018-01-27T02:44:50.734Z,0
2018-01-27T02:45:50.697Z,0
2018-01-27T02:46:50.434Z,0
2018-01-27T02:47:50.650Z,0
2018-01-27T02:48:50.612Z,0
2018-01-27T02:49:50.596Z,0
2018-01-27T02:50:50.326Z,0
2018-01-27T02:51:50.292Z,0
2018-01-27T02:52:50.512Z,0
2018-01-27T02:53:50.234Z,0
2018-01-27T02:54:49.715Z,0
2018-01-27T02:55:50.179Z,0
2018-01-27T02:56:50.400Z,0
2018-01-27T02:57:50.122Z,0
2018-01-27T02:58:49.854Z,0
2018-01-27T02:59:50.074Z,0
2018-01-27T03:00:50.044Z,0
2018-01-27T03:01:50.770Z,0
2018-01-27T03:02:50.752Z,0
2018-01-27T03:03:49.966Z,0
2018-01-27T03:04:49.936Z,0
2018-01-27T03:05:49.917Z,0
2018-01-27T03:06:50.135Z,0
2018-01-27T03:07:50.104Z,0
2018-01-27T03:08:49.830Z,0
2018-01-27T03:09:50.046Z,0
2018-01-27T03:10:50.015Z,0
2018-01-27T03:11:49.742Z,0
2018-01-27T03:12:49.720Z,0
2018-01-27T03:13:49.934Z,0
2018-01-27T03:14:49.665Z,0
2018-01-27T03:15:49.887Z,0
2018-01-27T03:16:49.859Z,0
2018-01-27T03:17:49.588Z,0
2018-01-27T03:18:49.555Z,0
2018-01-27T03:19:49.775Z,0
2018-01-27T03:20:49.502Z,0
2018-01-27T03:21:49.471Z,0
2018-01-27T03:22:49.446Z,0
2018-01-27T03:23:49.426Z,0
2018-01-27T03:24:49.645Z,0
2018-01-27T03:25:49.619Z,0
2018-01-27T03:26:49.596Z,0
2018-01-27T03:27:49.559Z,0
2018-01-27T03:28:49.528Z,0
2018-01-27T03:29:49.263Z,0
2018-01-27T03:30:49.483Z,0
2018-01-27T03:31:49.207Z,0
2018-01-27T03:32:49.427Z,0
2018-01-27T03:33:49.163Z,0
2018-01-27T03:34:49.366Z,0
2018-01-27T03:35:49.338Z,0
2018-01-27T03:36:49.314Z,0
2018-01-27T03:37:49.287Z,0
2018-01-27T03:38:49.263Z,0
2018-01-27T03:39:48.990Z,0
2018-01-27T03:40:49.203Z,0
2018-01-27T03:41:48.697Z,0
2018-01-27T03:42:49.152Z,0
2018-01-27T03:43:48.885Z,0
2018-01-27T03:44:49.097Z,0
2018-01-27T03:45:49.082Z,0
2018-01-27T03:46:48.808Z,0
2018-01-27T03:47:49.026Z,0
2018-01-27T03:48:48.994Z,0
2018-01-27T03:49:48.963Z,0
2018-01-27T03:50:48.938Z,0
2018-01-27T03:51:48.908Z,0
2018-01-27T03:52:48.883Z,0
2018-01-27T03:53:48.853Z,0
2018-01-27T03:54:48.826Z,0
2018-01-27T03:55:48.558Z,0
2018-01-27T03:56:48.532Z,0
2018-01-27T03:57:48.502Z,0
2018-01-27T03:58:48.479Z,0
2018-01-27T03:59:48.692Z,0
2018-01-27T04:00:48.669Z,0
2018-01-27T04:01:47.898Z,0
2018-01-27T04:02:48.366Z,0
2018-01-27T04:03:48.593Z,0
2018-01-27T04:04:48.314Z,0
2018-01-27T04:05:48.533Z,0
2018-01-27T04:06:48.261Z,0
2018-01-27T04:07:48.485Z,0
2018-01-27T04:08:48.212Z,0
2018-01-27T04:09:47.930Z,0
2018-01-27T04:10:48.401Z,0
2018-01-27T04:11:50.453Z,0
2018-01-27T04:12:48.344Z,0
2018-01-27T04:13:48.312Z,0
2018-01-27T04:14:47.556Z,0
2018-01-27T04:15:48.264Z,0
2018-01-27T04:16:48.234Z,0
2018-01-27T04:17:48.206Z,0
2018-01-27T04:18:47.934Z,0
2018-01-27T04:19:47.907Z,0
2018-01-27T04:20:48.126Z,0
2018-01-27T04:21:48.096Z,0
2018-01-27T04:22:47.828Z,0
2018-01-27T04:23:48.040Z,0
2018-01-27T04:24:48.019Z,0
2018-01-27T04:25:47.994Z,0
2018-01-27T04:26:48.063Z,0
2018-01-27T04:27:47.936Z,0
2018-01-27T04:28:47.915Z,0
2018-01-27T04:29:47.640Z,0
2018-01-27T04:30:47.708Z,0
2018-01-27T04:31:47.826Z,0
2018-01-27T04:32:47.803Z,0
2018-01-27T04:33:47.773Z,0
2018-01-27T04:34:47.248Z,0
2018-01-27T04:35:47.475Z,0
2018-01-27T04:36:47.741Z,0
2018-01-27T04:37:47.661Z,0
2018-01-27T04:38:47.635Z,0
2018-01-27T04:39:47.613Z,0
2018-01-27T04:40:47.334Z,0
2018-01-27T04:41:47.546Z,0
2018-01-27T04:42:47.522Z,0
2018-01-27T04:43:47.507Z,0
2018-01-27T04:44:47.464Z,0
2018-01-27T04:45:47.444Z,0
2018-01-27T04:46:47.171Z,0
2018-01-27T04:47:47.378Z,0
2018-01-27T04:48:47.357Z,0
2018-01-27T04:49:47.334Z,0
2018-01-27T04:50:46.812Z,0
2018-01-27T04:51:47.029Z,0
2018-01-27T04:52:47.003Z,0
2018-01-27T04:53:47.226Z,0
2018-01-27T04:54:46.944Z,0
2018-01-27T04:55:46.927Z,0
2018-01-27T04:56:46.646Z,0
2018-01-27T04:57:47.216Z,0
2018-01-27T04:58:47.085Z,0
2018-01-27T04:59:46.808Z,0
2018-01-27T05:00:47.021Z,0
2018-01-27T05:01:46.754Z,0
2018-01-27T05:02:46.777Z,0
2018-01-27T05:03:46.945Z,0
2018-01-27T05:04:46.676Z,0
2018-01-27T05:05:46.948Z,0
2018-01-27T05:06:46.867Z,0
2018-01-27T05:07:46.339Z,0
2018-01-27T05:08:46.802Z,0
2018-01-27T05:09:46.775Z,0
2018-01-27T05:10:46.509Z,0
2018-01-27T05:11:46.520Z,0
2018-01-27T05:12:46.202Z,0
2018-01-27T05:13:46.427Z,0
2018-01-27T05:14:46.867Z,0
2018-01-27T05:15:46.607Z,0
2018-01-27T05:16:46.591Z,0
2018-01-27T05:17:46.305Z,0
2018-01-27T05:18:46.534Z,0
2018-01-27T05:19:46.254Z,0
2018-01-27T05:20:46.474Z,0
2018-01-27T05:21:46.441Z,0
2018-01-27T05:22:46.180Z,0
2018-01-27T05:23:46.397Z,0
2018-01-27T05:24:45.870Z,0
2018-01-27T05:25:46.090Z,0
2018-01-27T05:26:46.311Z,0
2018-01-27T05:27:46.279Z,0
2018-01-27T05:28:46.009Z,0
2018-01-27T05:29:45.733Z,0
2018-01-27T05:30:45.950Z,0
2018-01-27T05:31:45.920Z,0
2018-01-27T05:32:45.904Z,0
2018-01-27T05:33:46.111Z,0
2018-01-27T05:34:45.837Z,0
2018-01-27T05:35:45.810Z,0
2018-01-27T05:36:46.073Z,0
2018-01-27T05:37:45.757Z,0
2018-01-27T05:38:45.723Z,0
2018-01-27T05:39:45.699Z,0
2018-01-27T05:40:45.673Z,0
2018-01-27T05:41:45.650Z,0
2018-01-27T05:42:45.865Z,0
2018-01-27T05:43:45.845Z,0
2018-01-27T05:44:45.317Z,0
2018-01-27T05:45:45.534Z,0
2018-01-27T05:46:45.749Z,0
2018-01-27T05:47:45.727Z,0
2018-01-27T05:48:45.448Z,0
2018-01-27T05:49:45.418Z,0
2018-01-27T05:50:45.636Z,0
2018-01-27T05:51:45.618Z,0
2018-01-27T05:52:45.583Z,0
2018-01-27T05:53:45.311Z,0
2018-01-27T05:54:45.528Z,0
2018-01-27T05:55:45.524Z,0
2018-01-27T05:56:45.224Z,0
2018-01-27T05:57:45.200Z,0
2018-01-27T05:58:45.173Z,0
2018-01-27T05:59:45.390Z,0
2018-01-27T06:00:45.114Z,0
2018-01-27T06:01:45.333Z,0
2018-01-27T06:02:45.301Z,0
2018-01-27T06:03:45.279Z,0
2018-01-27T06:04:45.005Z,0
2018-01-27T06:05:44.975Z,0
2018-01-27T06:06:44.700Z,0
2018-01-27T06:07:45.167Z,0
2018-01-27T06:08:44.897Z,0
2018-01-27T06:09:44.866Z,0
2018-01-27T06:10:44.839Z,0
2018-01-27T06:11:44.814Z,0
2018-01-27T06:12:45.025Z,0
2018-01-27T06:13:45.012Z,0
2018-01-27T06:14:44.725Z,0
2018-01-27T06:15:44.953Z,0
2018-01-27T06:16:44.919Z,0
2018-01-27T06:17:44.890Z,0
2018-01-27T06:18:44.617Z,0
2018-01-27T06:19:44.345Z,0
2018-01-27T06:20:44.557Z,0
2018-01-27T06:21:44.786Z,0
2018-01-27T06:22:44.751Z,0
2018-01-27T06:23:44.473Z,0
2018-01-27T06:24:44.694Z,0
2018-01-27T06:25:44.663Z,0
2018-01-27T06:26:44.635Z,0
2018-01-27T06:27:44.620Z,0
2018-01-27T06:28:44.447Z,0
2018-01-27T06:29:44.552Z,0
2018-01-27T06:30:44.290Z,0
2018-01-27T06:31:44.270Z,0
2018-01-27T06:32:44.525Z,0
2018-01-27T06:33:44.448Z,0
2018-01-27T06:34:44.425Z,0
2018-01-27T06:35:44.441Z,0
2018-01-27T06:36:44.116Z,0
2018-01-27T06:37:44.082Z,0
2018-01-27T06:38:44.078Z,0
2018-01-27T06:39:43.785Z,4
2018-01-27T06:40:44.326Z,4
2018-01-27T06:41:43.729Z,4
2018-01-27T06:42:43.701Z,0
2018-01-27T06:43:43.922Z,4
2018-01-27T06:44:43.893Z,4
2018-01-27T06:45:43.874Z,4
2018-01-27T06:46:44.082Z,4
2018-01-27T06:47:44.052Z,8
2018-01-27T06:48:44.026Z,8
2018-01-27T06:49:43.756Z,8
2018-01-27T06:50:43.970Z,12
2018-01-27T06:51:43.700Z,12
2018-01-27T06:52:43.912Z,12
2018-01-27T06:53:43.639Z,16
2018-01-27T06:54:43.613Z,16
2018-01-27T06:55:43.829Z,20
2018-01-27T06:56:43.550Z,28
2018-01-27T06:57:43.789Z,28
2018-01-27T06:58:43.261Z,36
2018-01-27T06:59:43.227Z,36
2018-01-27T07:00:43.443Z,44
2018-01-27T07:01:43.170Z,52
2018-01-27T07:02:43.634Z,60
2018-01-27T07:03:43.364Z,76
2018-01-27T07:04:43.192Z,88
2018-01-27T07:05:43.546Z,100
2018-01-27T07:06:43.032Z,108
2018-01-27T07:07:43.247Z,124
2018-01-27T07:08:43.221Z,148
2018-01-27T07:09:42.949Z,168
2018-01-27T07:10:43.460Z,192
2018-01-27T07:11:43.433Z,220
2018-01-27T07:12:43.361Z,256
2018-01-27T07:13:43.323Z,284
2018-01-27T07:14:43.299Z,316
2018-01-27T07:15:43.276Z,348
2018-01-27T07:16:43.249Z,384
2018-01-27T07:17:42.966Z,420
2018-01-27T07:18:42.938Z,460
2018-01-27T07:19:43.342Z,496
2018-01-27T07:20:42.889Z,528
2018-01-27T07:21:42.860Z,568
2018-01-27T07:22:43.084Z,608
2018-01-27T07:23:43.047Z,652
2018-01-27T07:24:43.017Z,696
2018-01-27T07:25:42.992Z,736
2018-01-27T07:26:42.963Z,780
2018-01-27T07:27:42.935Z,820
2018-01-27T07:28:42.905Z,860
2018-01-27T07:29:42.636Z,904
2018-01-27T07:30:42.609Z,948
2018-01-27T07:31:42.576Z,992
2018-01-27T07:32:42.549Z,1032
2018-01-27T07:33:42.523Z,1080
2018-01-27T07:34:42.740Z,1128
2018-01-27T07:35:42.466Z,1176
2018-01-27T07:36:42.680Z,1232
2018-01-27T07:37:42.407Z,1280
2018-01-27T07:38:42.626Z,1328
2018-01-27T07:39:42.353Z,1376
2018-01-27T07:40:42.566Z,1416
2018-01-27T07:41:42.292Z,1460
2018-01-27T07:42:42.515Z,1500
2018-01-27T07:43:42.489Z,1540
2018-01-27T07:44:42.457Z,1584
2018-01-27T07:45:42.176Z,1624
2018-01-27T07:46:42.393Z,1672
2018-01-27T07:47:42.375Z,1712
2018-01-27T07:48:41.846Z,1764
2018-01-27T07:49:42.069Z,1820
2018-01-27T07:50:42.283Z,1876
2018-01-27T07:51:42.009Z,1936
2018-01-27T07:52:42.246Z,1996
2018-01-27T07:53:42.194Z,2052
2018-01-27T07:54:42.172Z,2108
2018-01-27T07:55:42.142Z,2168
2018-01-27T07:56:41.871Z,2212
2018-01-27T07:57:41.843Z,2260
2018-01-27T07:58:42.098Z,2312
2018-01-27T07:59:42.027Z,2364
2018-01-27T08:00:41.504Z,2424
2018-01-27T08:01:41.972Z,2496
2018-01-27T08:02:41.940Z,2568
2018-01-27T08:03:41.909Z,2652
2018-01-27T08:04:41.887Z,2780
2018-01-27T08:05:41.856Z,2996
2018-01-27T08:06:41.823Z,3396
2018-01-27T08:07:41.797Z,3764
2018-01-27T08:08:41.524Z,4004
2018-01-27T08:09:41.734Z,4092
2018-01-27T08:10:41.715Z,3952
2018-01-27T08:11:41.436Z,3848
2018-01-27T08:12:41.693Z,3772
2018-01-27T08:13:41.373Z,3848
2018-01-27T08:14:41.604Z,3824
2018-01-27T08:15:41.571Z,3776
2018-01-27T08:16:41.587Z,3836
2018-01-27T08:17:41.508Z,3916
2018-01-27T08:18:41.243Z,3976
2018-01-27T08:19:41.464Z,4004
2018-01-27T08:20:41.422Z,3940
2018-01-27T08:21:41.401Z,3856
2018-01-27T08:22:41.429Z,3860
2018-01-27T08:23:40.850Z,3916
2018-01-27T08:24:41.072Z,3988
2018-01-27T08:25:41.043Z,4084
2018-01-27T08:26:41.283Z,4232
2018-01-27T08:27:40.996Z,4548
2018-01-27T08:28:41.202Z,5084
2018-01-27T08:29:41.170Z,5752
2018-01-27T08:30:41.147Z,5984
2018-01-27T08:31:41.120Z,6316
2018-01-27T08:32:40.844Z,6484
2018-01-27T08:33:40.818Z,6304
2018-01-27T08:34:41.033Z,6012
2018-01-27T08:35:41.004Z,6240
2018-01-27T08:36:40.972Z,6116
2018-01-27T08:37:40.699Z,6776
2018-01-27T08:38:40.924Z,7232
2018-01-27T08:39:40.886Z,7880
2018-01-27T08:40:40.861Z,7776
2018-01-27T08:41:40.836Z,6560
2018-01-27T08:42:40.808Z,5840
2018-01-27T08:43:40.789Z,5180
2018-01-27T08:44:40.757Z,4896
2018-01-27T08:45:40.733Z,4772
2018-01-27T08:46:40.701Z,4724
2018-01-27T08:47:40.429Z,4672
2018-01-27T08:48:40.151Z,4636
2018-01-27T08:49:40.617Z,4516
2018-01-27T08:50:40.345Z,4556
2018-01-27T08:51:40.562Z,4736
2018-01-27T08:52:40.300Z,5004
2018-01-27T08:53:40.511Z,5292
2018-01-27T08:54:40.675Z,5400
2018-01-27T08:55:40.534Z,5476
2018-01-27T08:56:40.435Z,6636
2018-01-27T08:57:40.156Z,6356
2018-01-27T08:58:40.124Z,6028
2018-01-27T08:59:40.093Z,6084
2018-01-27T09:00:40.068Z,5840
2018-01-27T09:01:40.288Z,6436
2018-01-27T09:02:40.269Z,6556
2018-01-27T09:03:40.233Z,6880
2018-01-27T09:04:39.956Z,6820
2018-01-27T09:05:39.685Z,7272
2018-01-27T09:06:40.154Z,7340
2018-01-27T09:07:40.120Z,7408
2018-01-27T09:08:40.089Z,7580
2018-01-27T09:09:40.059Z,7772
2018-01-27T09:10:40.063Z,7264
2018-01-27T09:11:40.010Z,7484
2018-01-27T09:12:39.490Z,7528
2018-01-27T09:13:39.462Z,7816
2018-01-27T09:14:39.931Z,8040
2018-01-27T09:15:39.902Z,8064
2018-01-27T09:16:39.629Z,9188
2018-01-27T09:17:39.859Z,8232
2018-01-27T09:18:39.576Z,8424
2018-01-27T09:19:39.549Z,8764
2018-01-27T09:20:39.524Z,7112
2018-01-27T09:21:39.502Z,6724
2018-01-27T09:22:39.714Z,6584
2018-01-27T09:23:39.734Z,6364
2018-01-27T09:24:39.662Z,6256
2018-01-27T09:25:39.385Z,6204
2018-01-27T09:26:39.655Z,6184
2018-01-27T09:27:39.574Z,6308
2018-01-27T09:28:39.338Z,6228
2018-01-27T09:29:39.544Z,6252
2018-01-27T09:30:39.507Z,6308
2018-01-27T09:31:39.476Z,6296
2018-01-27T09:32:39.449Z,6252
2018-01-27T09:33:39.170Z,6296
2018-01-27T09:34:39.147Z,6244
2018-01-27T09:35:39.363Z,6408
2018-01-27T09:36:39.095Z,6408
2018-01-27T09:37:39.124Z,6404
2018-01-27T09:38:39.038Z,6360
2018-01-27T09:39:39.013Z,6292
2018-01-27T09:40:39.676Z,6280
2018-01-27T09:41:40.573Z,6300
2018-01-27T09:42:39.430Z,6264
2018-01-27T09:43:40.345Z,6216
2018-01-27T09:44:39.848Z,6236
2018-01-27T09:45:40.142Z,6328
2018-01-27T09:46:39.068Z,6380
2018-01-27T09:47:38.792Z,6408
2018-01-27T09:48:39.042Z,6516
2018-01-27T09:49:38.752Z,6608
2018-01-27T09:50:38.960Z,6704
2018-01-27T09:51:38.933Z,6724
2018-01-27T09:52:38.659Z,6712
2018-01-27T09:53:38.882Z,6804
2018-01-27T09:54:38.602Z,6936
2018-01-27T09:55:38.587Z,7180
2018-01-27T09:56:38.547Z,7556
2018-01-27T09:57:38.523Z,7736
2018-01-27T09:58:38.247Z,7464
2018-01-27T09:59:38.720Z,6988
2018-01-27T10:00:38.687Z,6916
2018-01-27T10:01:38.417Z,6968
2018-01-27T10:02:38.630Z,6996
2018-01-27T10:03:38.608Z,6920
2018-01-27T10:04:38.587Z,7168
2018-01-27T10:05:38.058Z,7868
2018-01-27T10:06:38.531Z,8832
2018-01-27T10:07:38.255Z,10312
2018-01-27T10:08:38.224Z,11700
2018-01-27T10:09:38.447Z,12896
2018-01-27T10:10:38.462Z,13492
2018-01-27T10:11:38.390Z,13092
2018-01-27T10:12:38.518Z,12016
2018-01-27T10:13:38.097Z,10900
2018-01-27T10:14:38.306Z,10944
2018-01-27T10:15:38.280Z,10904
2018-01-27T10:16:38.255Z,10420
2018-01-27T10:17:38.224Z,10356
2018-01-27T10:18:38.206Z,10104
2018-01-27T10:19:37.930Z,9112
2018-01-27T10:20:37.906Z,9008
2018-01-27T10:21:38.126Z,9600
2018-01-27T10:22:37.868Z,9976
2018-01-27T10:23:38.068Z,9936
2018-01-27T10:24:38.044Z,9964
2018-01-27T10:25:38.020Z,10376
2018-01-27T10:26:38.076Z,11276
2018-01-27T10:27:37.976Z,12040
2018-01-27T10:28:37.713Z,11900
2018-01-27T10:29:37.917Z,11628
2018-01-27T10:30:37.955Z,12404
2018-01-27T10:31:37.870Z,13176
2018-01-27T10:32:37.841Z,13112
2018-01-27T10:33:37.814Z,11700
2018-01-27T10:34:37.794Z,10504
2018-01-27T10:35:37.764Z,10616
2018-01-27T10:36:37.737Z,11924
2018-01-27T10:37:37.724Z,12972
2018-01-27T10:38:37.699Z,13892
2018-01-27T10:39:37.423Z,13400
2018-01-27T10:40:37.705Z,13656
2018-01-27T10:41:37.367Z,13548
2018-01-27T10:42:37.345Z,13368
2018-01-27T10:43:37.566Z,12320
2018-01-27T10:44:37.298Z,11924
2018-01-27T10:45:37.516Z,12524
2018-01-27T10:46:37.249Z,12600
2018-01-27T10:47:37.521Z,12288
2018-01-27T10:48:37.441Z,12304
2018-01-27T10:49:37.170Z,12248
2018-01-27T10:50:37.389Z,12328
2018-01-27T10:51:37.373Z,10916
2018-01-27T10:52:37.097Z,9120
2018-01-27T10:53:37.068Z,8144
2018-01-27T10:54:37.045Z,8636
2018-01-27T10:55:37.273Z,8736
2018-01-27T10:56:37.242Z,7812
2018-01-27T10:57:36.971Z,8208
2018-01-27T10:58:37.185Z,8996
2018-01-27T10:59:37.172Z,9464
2018-01-27T11:00:36.895Z,9616
2018-01-27T11:01:37.119Z,9900
2018-01-27T11:02:37.090Z,9560
2018-01-27T11:03:37.070Z,9704
2018-01-27T11:04:36.802Z,10572
2018-01-27T11:05:36.776Z,10704
2018-01-27T11:06:36.775Z,9228
2018-01-27T11:07:36.729Z,7616
2018-01-27T11:08:36.704Z,8300
2018-01-27T11:09:36.676Z,7148
2018-01-27T11:10:36.655Z,7264
2018-01-27T11:11:36.876Z,8456
2018-01-27T11:12:36.603Z,10164
2018-01-27T11:13:37.268Z,10392
2018-01-27T11:14:36.806Z,10688
2018-01-27T11:15:36.531Z,10060
2018-01-27T11:16:36.750Z,9668
2018-01-27T11:17:36.481Z,8804
2018-01-27T11:18:36.692Z,9420
2018-01-27T11:19:36.729Z,10400
2018-01-27T11:20:36.660Z,11144
2018-01-27T11:21:36.627Z,12616
2018-01-27T11:22:36.595Z,13048
2018-01-27T11:23:36.336Z,12228
2018-01-27T11:24:36.305Z,12152
2018-01-27T11:25:36.285Z,11880
2018-01-27T11:26:36.517Z,11952
2018-01-27T11:27:36.480Z,12556
2018-01-27T11:28:36.507Z,12328
2018-01-27T11:29:36.434Z,12308
2018-01-27T11:30:36.171Z,11908
2018-01-27T11:31:36.380Z,11164
2018-01-27T11:32:36.359Z,10432
2018-01-27T11:33:36.088Z,10236
2018-01-27T11:34:36.307Z,10132
2018-01-27T11:35:36.280Z,9632
2018-01-27T11:36:36.255Z,9916
2018-01-27T11:37:36.232Z,10244
2018-01-27T11:38:36.018Z,11024
2018-01-27T11:39:37.784Z,10856
2018-01-27T11:40:37.111Z,10132
2018-01-27T11:41:38.526Z,9632
2018-01-27T11:42:37.481Z,10384
2018-01-27T11:43:37.246Z,10900
2018-01-27T11:44:36.744Z,10608
2018-01-27T11:45:37.732Z,11092
2018-01-27T11:46:36.464Z,11288
2018-01-27T11:47:36.456Z,11728
2018-01-27T11:48:35.722Z,12368
2018-01-27T11:49:35.699Z,12924
2018-01-27T11:50:35.668Z,13440
2018-01-27T11:51:35.887Z,13360
2018-01-27T11:52:35.372Z,12644
2018-01-27T11:53:35.890Z,12012
2018-01-27T11:54:35.565Z,11716
2018-01-27T11:55:35.792Z,11972
2018-01-27T11:56:35.767Z,13008
2018-01-27T11:57:35.746Z,12560
2018-01-27T11:58:35.473Z,12336
2018-01-27T11:59:35.693Z,13292
2018-01-27T12:00:35.434Z,13424
2018-01-27T12:01:35.399Z,13100
2018-01-27T12:02:35.380Z,12268
2018-01-27T12:03:35.351Z,11384
2018-01-27T12:04:35.374Z,11268
2018-01-27T12:05:35.309Z,10248
2018-01-27T12:06:35.526Z,9648
2018-01-27T12:07:35.250Z,9948
2018-01-27T12:08:35.481Z,10060
2018-01-27T12:09:35.211Z,8496
2018-01-27T12:10:35.431Z,8844
2018-01-27T12:11:35.986Z,9112
2018-01-27T12:12:35.778Z,9212
2018-01-27T12:13:35.108Z,10860
2018-01-27T12:14:35.146Z,12392
2018-01-27T12:15:35.064Z,12020
2018-01-27T12:16:35.413Z,11400
2018-01-27T12:17:35.259Z,11540
2018-01-27T12:18:35.235Z,11296
2018-01-27T12:19:34.959Z,11812
2018-01-27T12:20:35.197Z,11268
2018-01-27T12:21:35.164Z,10260
2018-01-27T12:22:34.936Z,9892
2018-01-27T12:23:34.868Z,10240
2018-01-27T12:24:35.093Z,10344
2018-01-27T12:25:35.063Z,11020
2018-01-27T12:26:35.036Z,11368
2018-01-27T12:27:34.769Z,10852
2018-01-27T12:28:35.056Z,10124
2018-01-27T12:29:34.720Z,10440
2018-01-27T12:30:34.691Z,12952
2018-01-27T12:31:34.924Z,12628
2018-01-27T12:32:34.916Z,10588
2018-01-27T12:33:34.876Z,10612
2018-01-27T12:34:34.602Z,11364
2018-01-27T12:35:34.434Z,10248
2018-01-27T12:36:34.058Z,10252
2018-01-27T12:37:34.279Z,10472
2018-01-27T12:38:34.501Z,10940
2018-01-27T12:39:34.725Z,11356
2018-01-27T12:40:34.450Z,11528
2018-01-27T12:41:34.673Z,12540
2018-01-27T12:42:34.403Z,13344
2018-01-27T12:43:34.628Z,16144
2018-01-27T12:44:34.357Z,12860
2018-01-27T12:45:34.582Z,10336
2018-01-27T12:46:34.551Z,9656
2018-01-27T12:47:34.532Z,9024
2018-01-27T12:48:34.509Z,8460
2018-01-27T12:49:34.235Z,7072
2018-01-27T12:50:34.261Z,6832
2018-01-27T12:51:34.439Z,7336
2018-01-27T12:52:33.672Z,8252
2018-01-27T12:53:34.386Z,7520
2018-01-27T12:54:34.117Z,7060
2018-01-27T12:55:34.095Z,8636
2018-01-27T12:56:34.099Z,8220
2018-01-27T12:57:34.043Z,8456
2018-01-27T12:58:34.268Z,8104
2018-01-27T12:59:34.244Z,8568
2018-01-27T13:00:34.329Z,10816
2018-01-27T13:01:34.194Z,9776
2018-01-27T13:02:33.927Z,9936
2018-01-27T13:03:34.147Z,9720
2018-01-27T13:04:34.122Z,8800
2018-01-27T13:05:33.603Z,10804
2018-01-27T13:06:33.576Z,12768
2018-01-27T13:07:33.801Z,11364
2018-01-27T13:08:33.776Z,8972
2018-01-27T13:09:33.755Z,7904
2018-01-27T13:10:33.729Z,7624
2018-01-27T13:11:33.714Z,7700
2018-01-27T13:12:33.672Z,8952
2018-01-27T13:13:33.902Z,8364
2018-01-27T13:14:33.382Z,7704
2018-01-27T13:15:33.859Z,7460
2018-01-27T13:16:33.832Z,7276
2018-01-27T13:17:33.802Z,7212
2018-01-27T13:18:33.769Z,6964
2018-01-27T13:19:33.511Z,6792
2018-01-27T13:20:33.477Z,6680
2018-01-27T13:21:33.704Z,6980
2018-01-27T13:22:33.675Z,6896
2018-01-27T13:23:33.651Z,6908
2018-01-27T13:24:33.385Z,6868
2018-01-27T13:25:33.610Z,7140
2018-01-27T13:26:33.573Z,7500
2018-01-27T13:27:33.558Z,8596
2018-01-27T13:28:33.524Z,10692
2018-01-27T13:29:33.509Z,10428
2018-01-27T13:30:33.483Z,8656
2018-01-27T13:31:33.305Z,9560
2018-01-27T13:32:33.429Z,9180
2018-01-27T13:33:33.155Z,8728
2018-01-27T13:34:33.381Z,10196
2018-01-27T13:35:32.619Z,8784
2018-01-27T13:36:33.331Z,8376
2018-01-27T13:37:33.305Z,9052
2018-01-27T13:38:33.280Z,8780
2018-01-27T13:39:33.010Z,9340
2018-01-27T13:40:32.987Z,10456
2018-01-27T13:41:32.964Z,8624
2018-01-27T13:42:33.183Z,8900
2018-01-27T13:43:32.914Z,9684
2018-01-27T13:44:32.643Z,8112
2018-01-27T13:45:32.865Z,7660
2018-01-27T13:46:32.593Z,8600
2018-01-27T13:47:32.811Z,8604
2018-01-27T13:48:33.034Z,7632
2018-01-27T13:49:32.772Z,6928
2018-01-27T13:50:32.502Z,6780
2018-01-27T13:51:32.966Z,6664
2018-01-27T13:52:32.699Z,6604
2018-01-27T13:53:32.915Z,6524
2018-01-27T13:54:32.637Z,7244
2018-01-27T13:55:32.619Z,7648
2018-01-27T13:56:32.837Z,7692
2018-01-27T13:57:32.813Z,7412